sensor_id;sensor_type;location;lat;lon;timestamp;P1;durP1;ratioP1;P2;durP2;ratioP2
47715;SDS011;33476;50.984;3.538;2023-03-02T00:01:42;7.07;;;4.10;;
47715;SDS011;33476;50.984;3.538;2023-03-02T00:04:13;12.93;;;4.68;;
47715;SDS011;33476;50.984;3.538;2023-03-02T00:06:44;8.27;;;4.75;;
47715;SDS011;33476;50.984;3.538;2023-03-02T00:09:10;7.55;;;4.63;;
47715;SDS011;33476;50.984;3.538;2023-03-02T00:11:36;10.35;;;4.95;;
47715;SDS011;33476;50.984;3.538;2023-03-02T00:14:02;8.43;;;4.60;;
47715;SDS011;33476;50.984;3.538;2023-03-02T00:16:28;7.28;;;4.10;;
47715;SDS011;33476;50.984;3.538;2023-03-02T00:18:53;9.25;;;4.07;;
47715;SDS011;33476;50.984;3.538;2023-03-02T00:21:19;6.82;;;3.95;;
47715;SDS011;33476;50.984;3.538;2023-03-02T00:23:44;8.23;;;4.18;;
47715;SDS011;33476;50.984;3.538;2023-03-02T00:26:09;8.30;;;4.38;;
47715;SDS011;33476;50.984;3.538;2023-03-02T00:28:35;9.02;;;4.20;;
47715;SDS011;33476;50.984;3.538;2023-03-02T00:31:03;8.75;;;4.00;;
47715;SDS011;33476;50.984;3.538;2023-03-02T00:33:29;9.18;;;4.10;;
47715;SDS011;33476;50.984;3.538;2023-03-02T00:35:55;8.55;;;4.15;;
47715;SDS011;33476;50.984;3.538;2023-03-02T00:38:20;8.75;;;4.30;;
47715;SDS011;33476;50.984;3.538;2023-03-02T00:40:46;10.68;;;3.45;;
47715;SDS011;33476;50.984;3.538;2023-03-02T00:43:13;8.65;;;4.25;;
47715;SDS011;33476;50.984;3.538;2023-03-02T00:45:39;10.05;;;4.40;;
47715;SDS011;33476;50.984;3.538;2023-03-02T00:48:04;11.35;;;4.28;;
47715;SDS011;33476;50.984;3.538;2023-03-02T00:50:31;6.57;;;3.80;;
47715;SDS011;33476;50.984;3.538;2023-03-02T00:52:56;8.00;;;4.15;;
47715;SDS011;33476;50.984;3.538;2023-03-02T00:55:22;9.05;;;4.32;;
47715;SDS011;33476;50.984;3.538;2023-03-02T00:57:47;8.82;;;4.55;;
47715;SDS011;33476;50.984;3.538;2023-03-02T01:00:19;7.85;;;4.47;;
47715;SDS011;33476;50.984;3.538;2023-03-02T01:02:46;9.57;;;4.00;;
47715;SDS011;33476;50.984;3.538;2023-03-02T01:05:11;11.18;;;4.05;;
47715;SDS011;33476;50.984;3.538;2023-03-02T01:07:37;8.45;;;4.18;;
47715;SDS011;33476;50.984;3.538;2023-03-02T01:10:02;8.45;;;3.90;;
47715;SDS011;33476;50.984;3.538;2023-03-02T01:12:28;9.32;;;4.35;;
47715;SDS011;33476;50.984;3.538;2023-03-02T01:14:53;7.53;;;4.13;;
47715;SDS011;33476;50.984;3.538;2023-03-02T01:17:19;8.65;;;4.28;;
47715;SDS011;33476;50.984;3.538;2023-03-02T01:19:46;8.40;;;4.07;;
47715;SDS011;33476;50.984;3.538;2023-03-02T01:22:12;8.20;;;4.45;;
47715;SDS011;33476;50.984;3.538;2023-03-02T01:24:38;11.75;;;4.35;;
47715;SDS011;33476;50.984;3.538;2023-03-02T01:27:03;10.95;;;4.00;;
47715;SDS011;33476;50.984;3.538;2023-03-02T01:29:28;7.82;;;4.07;;
47715;SDS011;33476;50.984;3.538;2023-03-02T01:31:54;7.13;;;3.45;;
47715;SDS011;33476;50.984;3.538;2023-03-02T01:34:19;7.85;;;4.10;;
47715;SDS011;33476;50.984;3.538;2023-03-02T01:36:45;8.35;;;4.07;;
47715;SDS011;33476;50.984;3.538;2023-03-02T01:39:10;9.68;;;3.95;;
47715;SDS011;33476;50.984;3.538;2023-03-02T01:41:39;9.48;;;4.10;;
47715;SDS011;33476;50.984;3.538;2023-03-02T01:44:07;8.25;;;4.50;;
47715;SDS011;33476;50.984;3.538;2023-03-02T01:47:09;15.68;;;4.07;;
47715;SDS011;33476;50.984;3.538;2023-03-02T01:49:38;8.48;;;4.07;;
47715;SDS011;33476;50.984;3.538;2023-03-02T01:52:07;8.40;;;3.97;;
47715;SDS011;33476;50.984;3.538;2023-03-02T01:54:36;8.45;;;3.97;;
47715;SDS011;33476;50.984;3.538;2023-03-02T01:57:02;9.30;;;3.95;;
47715;SDS011;33476;50.984;3.538;2023-03-02T01:59:30;7.70;;;3.72;;
47715;SDS011;33476;50.984;3.538;2023-03-02T02:01:57;5.03;;;3.15;;
47715;SDS011;33476;50.984;3.538;2023-03-02T02:04:26;11.07;;;4.00;;
47715;SDS011;33476;50.984;3.538;2023-03-02T02:06:55;8.32;;;3.75;;
47715;SDS011;33476;50.984;3.538;2023-03-02T02:09:25;7.97;;;3.60;;
47715;SDS011;33476;50.984;3.538;2023-03-02T02:11:53;11.05;;;3.97;;
47715;SDS011;33476;50.984;3.538;2023-03-02T02:14:18;5.43;;;3.30;;
47715;SDS011;33476;50.984;3.538;2023-03-02T02:16:44;10.55;;;3.90;;
47715;SDS011;33476;50.984;3.538;2023-03-02T02:21:59;7.57;;;3.60;;
47715;SDS011;33476;50.984;3.538;2023-03-02T02:27:06;7.38;;;3.47;;
47715;SDS011;33476;50.984;3.538;2023-03-02T02:29:33;6.43;;;3.78;;
47715;SDS011;33476;50.984;3.538;2023-03-02T02:32:03;5.77;;;2.70;;
47715;SDS011;33476;50.984;3.538;2023-03-02T02:37:16;7.53;;;3.60;;
47715;SDS011;33476;50.984;3.538;2023-03-02T02:39:46;7.15;;;3.83;;
47715;SDS011;33476;50.984;3.538;2023-03-02T02:42:20;7.88;;;3.92;;
47715;SDS011;33476;50.984;3.538;2023-03-02T02:44:52;6.55;;;3.17;;
47715;SDS011;33476;50.984;3.538;2023-03-02T02:47:22;7.72;;;3.78;;
47715;SDS011;33476;50.984;3.538;2023-03-02T02:49:49;10.38;;;4.03;;
47715;SDS011;33476;50.984;3.538;2023-03-02T02:52:17;7.78;;;3.20;;
47715;SDS011;33476;50.984;3.538;2023-03-02T02:54:46;7.10;;;3.65;;
47715;SDS011;33476;50.984;3.538;2023-03-02T02:57:14;8.23;;;3.65;;
47715;SDS011;33476;50.984;3.538;2023-03-02T02:59:48;8.18;;;3.53;;
47715;SDS011;33476;50.984;3.538;2023-03-02T03:02:21;7.32;;;3.45;;
47715;SDS011;33476;50.984;3.538;2023-03-02T03:04:50;5.05;;;3.10;;
47715;SDS011;33476;50.984;3.538;2023-03-02T03:07:19;5.85;;;3.55;;
47715;SDS011;33476;50.984;3.538;2023-03-02T03:09:47;9.80;;;3.50;;
47715;SDS011;33476;50.984;3.538;2023-03-02T03:12:21;5.97;;;3.30;;
47715;SDS011;33476;50.984;3.538;2023-03-02T03:14:49;6.38;;;3.30;;
47715;SDS011;33476;50.984;3.538;2023-03-02T03:17:14;6.50;;;3.33;;
47715;SDS011;33476;50.984;3.538;2023-03-02T03:19:41;6.53;;;3.38;;
47715;SDS011;33476;50.984;3.538;2023-03-02T03:22:09;8.38;;;4.22;;
47715;SDS011;33476;50.984;3.538;2023-03-02T03:24:38;6.47;;;3.47;;
47715;SDS011;33476;50.984;3.538;2023-03-02T03:27:05;6.47;;;3.55;;
47715;SDS011;33476;50.984;3.538;2023-03-02T03:29:32;6.90;;;3.22;;
47715;SDS011;33476;50.984;3.538;2023-03-02T03:31:59;7.22;;;3.33;;
47715;SDS011;33476;50.984;3.538;2023-03-02T03:34:26;8.10;;;3.78;;
47715;SDS011;33476;50.984;3.538;2023-03-02T03:36:53;7.25;;;3.47;;
47715;SDS011;33476;50.984;3.538;2023-03-02T03:39:25;7.15;;;3.63;;
47715;SDS011;33476;50.984;3.538;2023-03-02T03:41:54;6.70;;;3.22;;
47715;SDS011;33476;50.984;3.538;2023-03-02T03:44:19;8.25;;;3.60;;
47715;SDS011;33476;50.984;3.538;2023-03-02T03:46:45;8.05;;;3.65;;
47715;SDS011;33476;50.984;3.538;2023-03-02T03:49:10;9.98;;;3.80;;
47715;SDS011;33476;50.984;3.538;2023-03-02T03:51:36;8.88;;;4.13;;
47715;SDS011;33476;50.984;3.538;2023-03-02T03:54:02;8.43;;;3.42;;
47715;SDS011;33476;50.984;3.538;2023-03-02T03:56:30;9.90;;;3.80;;
47715;SDS011;33476;50.984;3.538;2023-03-02T03:58:58;5.97;;;3.33;;
47715;SDS011;33476;50.984;3.538;2023-03-02T04:01:32;8.70;;;3.30;;
47715;SDS011;33476;50.984;3.538;2023-03-02T04:04:03;10.85;;;4.30;;
47715;SDS011;33476;50.984;3.538;2023-03-02T04:06:30;7.68;;;3.75;;
47715;SDS011;33476;50.984;3.538;2023-03-02T04:08:55;10.38;;;4.22;;
47715;SDS011;33476;50.984;3.538;2023-03-02T04:11:21;9.68;;;3.45;;
47715;SDS011;33476;50.984;3.538;2023-03-02T04:13:46;5.82;;;3.40;;
47715;SDS011;33476;50.984;3.538;2023-03-02T04:16:12;7.47;;;3.53;;
47715;SDS011;33476;50.984;3.538;2023-03-02T04:18:38;10.48;;;3.70;;
47715;SDS011;33476;50.984;3.538;2023-03-02T04:21:03;7.60;;;3.42;;
47715;SDS011;33476;50.984;3.538;2023-03-02T04:23:29;4.82;;;3.05;;
47715;SDS011;33476;50.984;3.538;2023-03-02T04:25:54;7.30;;;3.55;;
47715;SDS011;33476;50.984;3.538;2023-03-02T04:28:19;8.10;;;3.75;;
47715;SDS011;33476;50.984;3.538;2023-03-02T04:30:45;9.65;;;3.40;;
47715;SDS011;33476;50.984;3.538;2023-03-02T04:33:10;7.07;;;3.42;;
47715;SDS011;33476;50.984;3.538;2023-03-02T04:35:35;7.80;;;3.33;;
47715;SDS011;33476;50.984;3.538;2023-03-02T04:38:01;7.25;;;3.20;;
47715;SDS011;33476;50.984;3.538;2023-03-02T04:40:27;5.30;;;2.83;;
47715;SDS011;33476;50.984;3.538;2023-03-02T04:42:53;10.60;;;3.63;;
47715;SDS011;33476;50.984;3.538;2023-03-02T04:45:18;7.07;;;3.40;;
47715;SDS011;33476;50.984;3.538;2023-03-02T04:47:44;6.70;;;3.55;;
47715;SDS011;33476;50.984;3.538;2023-03-02T04:50:10;9.57;;;3.50;;
47715;SDS011;33476;50.984;3.538;2023-03-02T04:52:37;7.95;;;3.55;;
47715;SDS011;33476;50.984;3.538;2023-03-02T04:55:03;7.60;;;3.72;;
47715;SDS011;33476;50.984;3.538;2023-03-02T04:57:29;8.40;;;3.95;;
47715;SDS011;33476;50.984;3.538;2023-03-02T04:59:55;9.88;;;3.92;;
47715;SDS011;33476;50.984;3.538;2023-03-02T05:02:20;8.48;;;4.00;;
47715;SDS011;33476;50.984;3.538;2023-03-02T05:04:46;8.98;;;4.35;;
47715;SDS011;33476;50.984;3.538;2023-03-02T05:07:11;9.55;;;3.78;;
47715;SDS011;33476;50.984;3.538;2023-03-02T05:09:37;7.97;;;4.05;;
47715;SDS011;33476;50.984;3.538;2023-03-02T05:12:02;8.98;;;4.65;;
47715;SDS011;33476;50.984;3.538;2023-03-02T05:14:29;10.48;;;4.43;;
47715;SDS011;33476;50.984;3.538;2023-03-02T05:16:55;9.80;;;4.57;;
47715;SDS011;33476;50.984;3.538;2023-03-02T05:19:21;7.18;;;4.05;;
47715;SDS011;33476;50.984;3.538;2023-03-02T05:21:46;9.82;;;4.78;;
47715;SDS011;33476;50.984;3.538;2023-03-02T05:24:12;10.85;;;4.72;;
47715;SDS011;33476;50.984;3.538;2023-03-02T05:26:37;9.63;;;4.22;;
47715;SDS011;33476;50.984;3.538;2023-03-02T05:29:03;11.73;;;4.57;;
47715;SDS011;33476;50.984;3.538;2023-03-02T05:33:54;9.48;;;5.03;;
47715;SDS011;33476;50.984;3.538;2023-03-02T05:36:20;10.60;;;5.10;;
47715;SDS011;33476;50.984;3.538;2023-03-02T05:38:45;12.25;;;5.38;;
47715;SDS011;33476;50.984;3.538;2023-03-02T05:41:10;9.85;;;5.22;;
47715;SDS011;33476;50.984;3.538;2023-03-02T05:43:36;11.15;;;5.30;;
47715;SDS011;33476;50.984;3.538;2023-03-02T05:46:01;11.57;;;4.82;;
47715;SDS011;33476;50.984;3.538;2023-03-02T05:48:28;10.95;;;5.07;;
47715;SDS011;33476;50.984;3.538;2023-03-02T05:50:54;11.48;;;5.65;;
47715;SDS011;33476;50.984;3.538;2023-03-02T05:53:21;12.35;;;5.43;;
47715;SDS011;33476;50.984;3.538;2023-03-02T05:55:46;13.32;;;6.45;;
47715;SDS011;33476;50.984;3.538;2023-03-02T05:58:12;10.57;;;5.38;;
47715;SDS011;33476;50.984;3.538;2023-03-02T06:00:40;16.35;;;6.25;;
47715;SDS011;33476;50.984;3.538;2023-03-02T06:03:05;14.52;;;6.18;;
47715;SDS011;33476;50.984;3.538;2023-03-02T06:05:31;15.30;;;6.55;;
47715;SDS011;33476;50.984;3.538;2023-03-02T06:07:57;14.35;;;6.38;;
47715;SDS011;33476;50.984;3.538;2023-03-02T06:10:23;17.05;;;7.32;;
47715;SDS011;33476;50.984;3.538;2023-03-02T06:12:49;19.35;;;7.60;;
47715;SDS011;33476;50.984;3.538;2023-03-02T06:15:14;16.85;;;7.80;;
47715;SDS011;33476;50.984;3.538;2023-03-02T06:17:40;19.55;;;8.80;;
47715;SDS011;33476;50.984;3.538;2023-03-02T06:20:06;20.85;;;8.80;;
47715;SDS011;33476;50.984;3.538;2023-03-02T06:22:35;18.30;;;8.52;;
47715;SDS011;33476;50.984;3.538;2023-03-02T06:25:02;21.95;;;8.60;;
47715;SDS011;33476;50.984;3.538;2023-03-02T06:27:28;21.52;;;9.25;;
47715;SDS011;33476;50.984;3.538;2023-03-02T06:29:53;22.27;;;9.77;;
47715;SDS011;33476;50.984;3.538;2023-03-02T06:32:19;24.10;;;9.57;;
47715;SDS011;33476;50.984;3.538;2023-03-02T06:34:44;22.35;;;9.80;;
47715;SDS011;33476;50.984;3.538;2023-03-02T06:37:10;26.17;;;10.68;;
47715;SDS011;33476;50.984;3.538;2023-03-02T06:39:35;26.30;;;10.88;;
47715;SDS011;33476;50.984;3.538;2023-03-02T06:42:00;24.92;;;10.93;;
47715;SDS011;33476;50.984;3.538;2023-03-02T06:44:26;24.52;;;10.73;;
47715;SDS011;33476;50.984;3.538;2023-03-02T06:46:51;27.23;;;12.25;;
47715;SDS011;33476;50.984;3.538;2023-03-02T06:49:16;30.52;;;12.13;;
47715;SDS011;33476;50.984;3.538;2023-03-02T06:51:42;26.00;;;11.60;;
47715;SDS011;33476;50.984;3.538;2023-03-02T06:54:07;33.40;;;13.48;;
47715;SDS011;33476;50.984;3.538;2023-03-02T06:56:33;34.55;;;14.05;;
47715;SDS011;33476;50.984;3.538;2023-03-02T06:58:58;33.55;;;14.23;;
47715;SDS011;33476;50.984;3.538;2023-03-02T07:01:24;33.92;;;14.15;;
47715;SDS011;33476;50.984;3.538;2023-03-02T07:03:49;30.63;;;13.18;;
47715;SDS011;33476;50.984;3.538;2023-03-02T07:06:14;31.05;;;13.18;;
47715;SDS011;33476;50.984;3.538;2023-03-02T07:08:40;36.78;;;13.82;;
47715;SDS011;33476;50.984;3.538;2023-03-02T07:11:06;33.35;;;14.07;;
47715;SDS011;33476;50.984;3.538;2023-03-02T07:13:34;38.10;;;14.63;;
47715;SDS011;33476;50.984;3.538;2023-03-02T07:16:04;32.50;;;14.30;;
47715;SDS011;33476;50.984;3.538;2023-03-02T07:18:31;31.35;;;13.20;;
47715;SDS011;33476;50.984;3.538;2023-03-02T07:20:56;31.48;;;14.32;;
47715;SDS011;33476;50.984;3.538;2023-03-02T07:23:21;31.88;;;13.55;;
47715;SDS011;33476;50.984;3.538;2023-03-02T07:25:47;29.60;;;13.48;;
47715;SDS011;33476;50.984;3.538;2023-03-02T07:28:13;30.90;;;13.23;;
47715;SDS011;33476;50.984;3.538;2023-03-02T07:30:38;28.75;;;12.77;;
47715;SDS011;33476;50.984;3.538;2023-03-02T07:33:03;29.17;;;12.70;;
47715;SDS011;33476;50.984;3.538;2023-03-02T07:35:29;32.13;;;13.90;;
47715;SDS011;33476;50.984;3.538;2023-03-02T07:37:54;35.75;;;14.30;;
47715;SDS011;33476;50.984;3.538;2023-03-02T07:40:19;31.55;;;13.95;;
47715;SDS011;33476;50.984;3.538;2023-03-02T07:42:45;34.08;;;14.48;;
47715;SDS011;33476;50.984;3.538;2023-03-02T07:45:10;31.20;;;14.00;;
47715;SDS011;33476;50.984;3.538;2023-03-02T07:47:36;38.92;;;14.75;;
47715;SDS011;33476;50.984;3.538;2023-03-02T07:50:01;36.65;;;15.75;;
47715;SDS011;33476;50.984;3.538;2023-03-02T07:52:28;36.15;;;15.65;;
47715;SDS011;33476;50.984;3.538;2023-03-02T07:54:54;37.13;;;16.65;;
47715;SDS011;33476;50.984;3.538;2023-03-02T07:57:20;41.25;;;16.10;;
47715;SDS011;33476;50.984;3.538;2023-03-02T07:59:45;38.95;;;15.77;;
47715;SDS011;33476;50.984;3.538;2023-03-02T08:02:11;34.42;;;15.02;;
47715;SDS011;33476;50.984;3.538;2023-03-02T08:04:39;37.30;;;14.32;;
47715;SDS011;33476;50.984;3.538;2023-03-02T08:07:04;31.77;;;14.00;;
47715;SDS011;33476;50.984;3.538;2023-03-02T08:09:30;31.60;;;13.20;;
47715;SDS011;33476;50.984;3.538;2023-03-02T08:11:55;31.23;;;12.45;;
47715;SDS011;33476;50.984;3.538;2023-03-02T08:14:20;29.38;;;12.30;;
47715;SDS011;33476;50.984;3.538;2023-03-02T08:16:46;28.65;;;13.15;;
47715;SDS011;33476;50.984;3.538;2023-03-02T08:19:11;29.20;;;12.57;;
47715;SDS011;33476;50.984;3.538;2023-03-02T08:21:36;24.60;;;11.50;;
47715;SDS011;33476;50.984;3.538;2023-03-02T08:24:02;28.92;;;12.45;;
47715;SDS011;33476;50.984;3.538;2023-03-02T08:26:28;26.65;;;10.88;;
47715;SDS011;33476;50.984;3.538;2023-03-02T08:28:53;31.15;;;12.05;;
47715;SDS011;33476;50.984;3.538;2023-03-02T08:31:18;26.67;;;11.30;;
47715;SDS011;33476;50.984;3.538;2023-03-02T08:33:44;25.85;;;11.75;;
47715;SDS011;33476;50.984;3.538;2023-03-02T08:36:11;24.00;;;11.07;;
47715;SDS011;33476;50.984;3.538;2023-03-02T08:38:39;21.73;;;10.30;;
47715;SDS011;33476;50.984;3.538;2023-03-02T08:41:05;29.13;;;12.10;;
47715;SDS011;33476;50.984;3.538;2023-03-02T08:43:32;23.98;;;10.48;;
47715;SDS011;33476;50.984;3.538;2023-03-02T08:45:59;21.63;;;10.77;;
47715;SDS011;33476;50.984;3.538;2023-03-02T08:48:25;28.98;;;10.43;;
47715;SDS011;33476;50.984;3.538;2023-03-02T08:50:54;29.15;;;11.60;;
47715;SDS011;33476;50.984;3.538;2023-03-02T08:53:24;26.83;;;10.57;;
47715;SDS011;33476;50.984;3.538;2023-03-02T08:55:50;26.17;;;11.13;;
47715;SDS011;33476;50.984;3.538;2023-03-02T08:58:16;25.63;;;11.48;;
47715;SDS011;33476;50.984;3.538;2023-03-02T09:00:42;25.73;;;10.80;;
47715;SDS011;33476;50.984;3.538;2023-03-02T09:03:07;26.17;;;10.75;;
47715;SDS011;33476;50.984;3.538;2023-03-02T09:05:32;27.13;;;11.43;;
47715;SDS011;33476;50.984;3.538;2023-03-02T09:07:58;24.42;;;10.52;;
47715;SDS011;33476;50.984;3.538;2023-03-02T09:10:23;23.58;;;10.90;;
47715;SDS011;33476;50.984;3.538;2023-03-02T09:12:49;29.90;;;11.20;;
47715;SDS011;33476;50.984;3.538;2023-03-02T09:15:14;25.02;;;10.95;;
47715;SDS011;33476;50.984;3.538;2023-03-02T09:17:39;25.73;;;10.27;;
47715;SDS011;33476;50.984;3.538;2023-03-02T09:20:05;23.73;;;10.65;;
47715;SDS011;33476;50.984;3.538;2023-03-02T09:22:31;22.60;;;10.48;;
47715;SDS011;33476;50.984;3.538;2023-03-02T09:24:59;20.48;;;9.73;;
47715;SDS011;33476;50.984;3.538;2023-03-02T09:27:25;22.63;;;10.48;;
47715;SDS011;33476;50.984;3.538;2023-03-02T09:29:50;26.02;;;10.45;;
47715;SDS011;33476;50.984;3.538;2023-03-02T09:32:16;22.25;;;10.48;;
47715;SDS011;33476;50.984;3.538;2023-03-02T09:34:41;24.35;;;10.45;;
47715;SDS011;33476;50.984;3.538;2023-03-02T09:37:06;25.83;;;10.32;;
47715;SDS011;33476;50.984;3.538;2023-03-02T09:39:32;27.08;;;11.50;;
47715;SDS011;33476;50.984;3.538;2023-03-02T09:43:00;24.55;;;10.68;;
47715;SDS011;33476;50.984;3.538;2023-03-02T09:50:31;23.17;;;10.32;;
47715;SDS011;33476;50.984;3.538;2023-03-02T09:53:23;25.50;;;10.45;;
47715;SDS011;33476;50.984;3.538;2023-03-02T09:55:58;22.45;;;10.07;;
47715;SDS011;33476;50.984;3.538;2023-03-02T09:58:24;26.17;;;10.48;;
47715;SDS011;33476;50.984;3.538;2023-03-02T10:00:55;21.83;;;10.18;;
47715;SDS011;33476;50.984;3.538;2023-03-02T10:03:27;24.73;;;10.23;;
47715;SDS011;33476;50.984;3.538;2023-03-02T10:06:09;22.35;;;9.32;;
47715;SDS011;33476;50.984;3.538;2023-03-02T10:08:35;21.88;;;10.38;;
47715;SDS011;33476;50.984;3.538;2023-03-02T10:11:13;25.02;;;9.88;;
47715;SDS011;33476;50.984;3.538;2023-03-02T10:13:49;23.92;;;10.50;;
47715;SDS011;33476;50.984;3.538;2023-03-02T10:19:11;23.38;;;10.35;;
47715;SDS011;33476;50.984;3.538;2023-03-02T10:21:44;21.52;;;9.70;;
47715;SDS011;33476;50.984;3.538;2023-03-02T10:32:31;21.90;;;9.98;;
47715;SDS011;33476;50.984;3.538;2023-03-02T10:35:01;23.33;;;10.55;;
47715;SDS011;33476;50.984;3.538;2023-03-02T10:37:37;24.95;;;11.15;;
47715;SDS011;33476;50.984;3.538;2023-03-02T10:40:03;24.75;;;10.48;;
47715;SDS011;33476;50.984;3.538;2023-03-02T10:42:29;26.73;;;10.98;;
47715;SDS011;33476;50.984;3.538;2023-03-02T10:48:01;23.80;;;10.80;;
47715;SDS011;33476;50.984;3.538;2023-03-02T10:50:28;25.75;;;11.23;;
47715;SDS011;33476;50.984;3.538;2023-03-02T10:52:54;23.88;;;10.95;;
47715;SDS011;33476;50.984;3.538;2023-03-02T10:55:20;24.08;;;10.10;;
47715;SDS011;33476;50.984;3.538;2023-03-02T10:57:55;27.52;;;12.32;;
47715;SDS011;33476;50.984;3.538;2023-03-02T11:00:25;31.10;;;12.60;;
47715;SDS011;33476;50.984;3.538;2023-03-02T11:02:57;31.67;;;11.90;;
47715;SDS011;33476;50.984;3.538;2023-03-02T11:08:02;30.17;;;11.98;;
47715;SDS011;33476;50.984;3.538;2023-03-02T11:10:49;30.38;;;12.00;;
47715;SDS011;33476;50.984;3.538;2023-03-02T11:13:16;27.98;;;12.18;;
47715;SDS011;33476;50.984;3.538;2023-03-02T11:15:51;28.08;;;12.57;;
47715;SDS011;33476;50.984;3.538;2023-03-02T11:20:47;28.98;;;11.45;;
47715;SDS011;33476;50.984;3.538;2023-03-02T11:23:18;26.92;;;11.45;;
47715;SDS011;33476;50.984;3.538;2023-03-02T11:25:54;27.23;;;11.40;;
47715;SDS011;33476;50.984;3.538;2023-03-02T11:28:36;25.95;;;11.52;;
47715;SDS011;33476;50.984;3.538;2023-03-02T11:34:23;29.25;;;12.57;;
47715;SDS011;33476;50.984;3.538;2023-03-02T11:37:04;26.70;;;11.48;;
47715;SDS011;33476;50.984;3.538;2023-03-02T11:39:42;24.60;;;11.38;;
47715;SDS011;33476;50.984;3.538;2023-03-02T11:42:32;28.15;;;11.05;;
47715;SDS011;33476;50.984;3.538;2023-03-02T11:45:02;23.95;;;10.52;;
47715;SDS011;33476;50.984;3.538;2023-03-02T11:50:31;25.85;;;10.57;;
47715;SDS011;33476;50.984;3.538;2023-03-02T11:53:03;16.77;;;8.75;;
47715;SDS011;33476;50.984;3.538;2023-03-02T11:55:32;27.25;;;10.50;;
47715;SDS011;33476;50.984;3.538;2023-03-02T12:05:25;28.00;;;11.20;;
47715;SDS011;33476;50.984;3.538;2023-03-02T12:07:56;27.20;;;10.93;;
47715;SDS011;33476;50.984;3.538;2023-03-02T12:10:30;23.77;;;10.43;;
47715;SDS011;33476;50.984;3.538;2023-03-02T12:13:11;29.55;;;11.07;;
47715;SDS011;33476;50.984;3.538;2023-03-02T12:15:45;25.23;;;10.70;;
47715;SDS011;33476;50.984;3.538;2023-03-02T12:21:05;26.25;;;10.60;;
47715;SDS011;33476;50.984;3.538;2023-03-02T12:23:34;24.98;;;10.85;;
47715;SDS011;33476;50.984;3.538;2023-03-02T12:26:20;27.38;;;10.05;;
47715;SDS011;33476;50.984;3.538;2023-03-02T12:29:03;27.08;;;10.13;;
47715;SDS011;33476;50.984;3.538;2023-03-02T12:31:45;25.88;;;10.20;;
47715;SDS011;33476;50.984;3.538;2023-03-02T12:37:27;23.17;;;10.40;;
47715;SDS011;33476;50.984;3.538;2023-03-02T12:40:10;24.20;;;10.45;;
47715;SDS011;33476;50.984;3.538;2023-03-02T12:42:46;22.98;;;9.93;;
47715;SDS011;33476;50.984;3.538;2023-03-02T12:45:23;23.25;;;9.88;;
47715;SDS011;33476;50.984;3.538;2023-03-02T12:48:14;20.15;;;9.70;;
47715;SDS011;33476;50.984;3.538;2023-03-02T12:50:47;21.30;;;10.25;;
47715;SDS011;33476;50.984;3.538;2023-03-02T12:53:16;21.33;;;9.68;;
47715;SDS011;33476;50.984;3.538;2023-03-02T12:55:42;21.95;;;10.00;;
47715;SDS011;33476;50.984;3.538;2023-03-02T12:58:18;21.13;;;9.35;;
47715;SDS011;33476;50.984;3.538;2023-03-02T13:00:51;19.08;;;9.00;;
47715;SDS011;33476;50.984;3.538;2023-03-02T13:03:18;18.55;;;8.68;;
47715;SDS011;33476;50.984;3.538;2023-03-02T13:05:44;19.30;;;8.48;;
47715;SDS011;33476;50.984;3.538;2023-03-02T13:10:40;20.33;;;8.70;;
47715;SDS011;33476;50.984;3.538;2023-03-02T13:13:18;18.17;;;8.95;;
47715;SDS011;33476;50.984;3.538;2023-03-02T13:15:48;18.63;;;8.48;;
47715;SDS011;33476;50.984;3.538;2023-03-02T13:18:14;18.45;;;8.35;;
47715;SDS011;33476;50.984;3.538;2023-03-02T13:20:40;17.38;;;7.97;;
47715;SDS011;33476;50.984;3.538;2023-03-02T13:23:08;18.83;;;8.73;;
47715;SDS011;33476;50.984;3.538;2023-03-02T13:25:37;21.58;;;9.13;;
47715;SDS011;33476;50.984;3.538;2023-03-02T13:31:02;25.10;;;9.48;;
47715;SDS011;33476;50.984;3.538;2023-03-02T13:33:42;24.02;;;9.52;;
47715;SDS011;33476;50.984;3.538;2023-03-02T13:36:16;20.10;;;9.13;;
47715;SDS011;33476;50.984;3.538;2023-03-02T13:38:44;19.48;;;8.82;;
47715;SDS011;33476;50.984;3.538;2023-03-02T13:41:20;20.17;;;9.25;;
47715;SDS011;33476;50.984;3.538;2023-03-02T13:43:47;18.42;;;8.88;;
47715;SDS011;33476;50.984;3.538;2023-03-02T13:48:51;20.40;;;9.30;;
47715;SDS011;33476;50.984;3.538;2023-03-02T13:51:21;18.60;;;9.45;;
47715;SDS011;33476;50.984;3.538;2023-03-02T13:53:53;20.40;;;8.93;;
47715;SDS011;33476;50.984;3.538;2023-03-02T13:56:26;21.98;;;9.25;;
47715;SDS011;33476;50.984;3.538;2023-03-02T13:58:54;18.17;;;8.45;;
47715;SDS011;33476;50.984;3.538;2023-03-02T14:01:19;19.25;;;9.18;;
47715;SDS011;33476;50.984;3.538;2023-03-02T14:03:45;20.92;;;9.13;;
47715;SDS011;33476;50.984;3.538;2023-03-02T14:06:10;20.27;;;9.43;;
47715;SDS011;33476;50.984;3.538;2023-03-02T14:08:36;17.65;;;8.95;;
47715;SDS011;33476;50.984;3.538;2023-03-02T14:11:01;22.60;;;9.95;;
47715;SDS011;33476;50.984;3.538;2023-03-02T14:16:27;23.17;;;10.18;;
47715;SDS011;33476;50.984;3.538;2023-03-02T14:18:52;19.10;;;9.15;;
47715;SDS011;33476;50.984;3.538;2023-03-02T14:21:21;22.77;;;9.63;;
47715;SDS011;33476;50.984;3.538;2023-03-02T14:23:48;20.80;;;9.35;;
47715;SDS011;33476;50.984;3.538;2023-03-02T14:28:53;27.20;;;9.45;;
47715;SDS011;33476;50.984;3.538;2023-03-02T14:31:19;23.17;;;9.43;;
47715;SDS011;33476;50.984;3.538;2023-03-02T14:33:45;22.20;;;9.25;;
47715;SDS011;33476;50.984;3.538;2023-03-02T14:36:14;22.63;;;9.00;;
47715;SDS011;33476;50.984;3.538;2023-03-02T14:38:45;22.58;;;10.05;;
47715;SDS011;33476;50.984;3.538;2023-03-02T14:41:21;20.67;;;9.45;;
47715;SDS011;33476;50.984;3.538;2023-03-02T14:43:48;17.50;;;8.35;;
47715;SDS011;33476;50.984;3.538;2023-03-02T14:46:13;18.23;;;8.50;;
47715;SDS011;33476;50.984;3.538;2023-03-02T14:48:39;20.58;;;9.25;;
47715;SDS011;33476;50.984;3.538;2023-03-02T14:51:04;21.15;;;9.18;;
47715;SDS011;33476;50.984;3.538;2023-03-02T14:53:44;18.88;;;8.23;;
47715;SDS011;33476;50.984;3.538;2023-03-02T14:56:10;21.50;;;8.75;;
47715;SDS011;33476;50.984;3.538;2023-03-02T14:58:36;20.67;;;8.40;;
47715;SDS011;33476;50.984;3.538;2023-03-02T15:01:01;21.83;;;9.00;;
47715;SDS011;33476;50.984;3.538;2023-03-02T15:03:27;20.08;;;9.10;;
47715;SDS011;33476;50.984;3.538;2023-03-02T15:05:53;18.00;;;8.18;;
47715;SDS011;33476;50.984;3.538;2023-03-02T15:08:19;20.90;;;8.57;;
47715;SDS011;33476;50.984;3.538;2023-03-02T15:10:46;17.65;;;7.85;;
47715;SDS011;33476;50.984;3.538;2023-03-02T15:13:13;17.60;;;7.80;;
47715;SDS011;33476;50.984;3.538;2023-03-02T15:15:38;20.33;;;7.55;;
47715;SDS011;33476;50.984;3.538;2023-03-02T15:18:08;17.15;;;7.65;;
47715;SDS011;33476;50.984;3.538;2023-03-02T15:20:34;16.10;;;7.65;;
47715;SDS011;33476;50.984;3.538;2023-03-02T15:23:00;21.77;;;7.80;;
47715;SDS011;33476;50.984;3.538;2023-03-02T15:25:25;21.00;;;8.90;;
47715;SDS011;33476;50.984;3.538;2023-03-02T15:27:53;20.58;;;8.60;;
47715;SDS011;33476;50.984;3.538;2023-03-02T15:30:19;20.73;;;7.45;;
47715;SDS011;33476;50.984;3.538;2023-03-02T15:32:45;17.17;;;7.53;;
47715;SDS011;33476;50.984;3.538;2023-03-02T15:35:14;20.30;;;7.90;;
47715;SDS011;33476;50.984;3.538;2023-03-02T15:37:40;23.38;;;7.47;;
47715;SDS011;33476;50.984;3.538;2023-03-02T15:40:05;27.60;;;8.82;;
47715;SDS011;33476;50.984;3.538;2023-03-02T15:42:31;26.30;;;8.30;;
47715;SDS011;33476;50.984;3.538;2023-03-02T15:44:57;20.52;;;7.00;;
47715;SDS011;33476;50.984;3.538;2023-03-02T15:47:22;19.08;;;6.75;;